Time;durP1;ratioP1;P1;durP2;ratioP2;P2;SDS_P1;SDS_P2;PMS_P1;PMS_P2;Temp;Humidity;BMP_temperature;BMP_pressure;BME280_temperature;BME280_humidity;BME280_pressure;Samples;Min_cycle;Max_cycle;Signal;HPM_P1;HPM_P2
2022/10/06 00:01:15;;;;;;;12.18;4.00;;;14.20;99.90;;;14.33;100.00;100967.22;4815648;29;20226;-63
2022/10/06 00:03:44;;;;;;;8.25;3.35;;;14.20;99.90;;;14.14;100.00;100966.25;4833930;29;20250;-63
2022/10/06 00:06:16;;;;;;;8.60;3.28;;;14.10;99.90;;;14.05;100.00;100982.19;4818323;29;20233;-63
2022/10/06 00:08:45;;;;;;;9.85;3.25;;;13.90;99.90;;;14.04;100.00;100991.03;4839068;29;20214;-63
2022/10/06 00:11:16;;;;;;;12.52;4.43;;;13.90;99.90;;;13.91;100.00;100994.53;4799807;29;20220;-63
2022/10/06 00:13:44;;;;;;;11.10;4.15;;;13.80;99.90;;;13.92;100.00;101006.94;4802907;29;20249;-63
2022/10/06 00:16:21;;;;;;;4.75;2.10;;;13.80;99.90;;;14.08;100.00;101025.63;4829653;29;20221;-64
2022/10/06 00:18:58;;;;;;;9.38;3.45;;;13.90;99.90;;;14.20;100.00;101039.88;4819769;29;20209;-63
2022/10/06 00:21:27;;;;;;;9.35;3.63;;;14.00;99.90;;;14.18;100.00;101031.00;4803085;29;20228;-63
2022/10/06 00:23:54;;;;;;;6.07;2.95;;;14.00;99.90;;;14.17;100.00;101040.75;4839030;29;20253;-63
2022/10/06 00:26:23;;;;;;;8.55;3.30;;;14.00;99.90;;;14.18;100.00;101039.84;4805210;29;20210;-63
2022/10/06 00:28:50;;;;;;;9.77;3.53;;;14.00;99.90;;;14.21;100.00;101053.16;4802855;29;20213;-62
2022/10/06 00:31:18;;;;;;;9.52;3.47;;;14.00;99.90;;;14.30;100.00;101060.28;4802310;29;20209;-63
2022/10/06 00:33:49;;;;;;;8.63;3.60;;;14.10;99.90;;;14.28;100.00;101046.09;4814220;29;20234;-63
2022/10/06 00:36:17;;;;;;;6.60;2.63;;;14.10;99.90;;;14.32;100.00;101050.59;4830476;29;20226;-63
2022/10/06 00:38:45;;;;;;;4.88;2.13;;;14.10;99.90;;;14.09;100.00;101048.69;4834639;29;20236;-62
2022/10/06 00:41:15;;;;;;;3.00;2.17;;;14.00;99.90;;;14.04;100.00;101050.44;4798965;29;20252;-63
2022/10/06 00:43:59;;;;;;;2.83;1.92;;;13.90;99.90;;;13.85;100.00;101050.34;4825870;29;20234;-63
2022/10/06 00:46:49;;;;;;;8.35;3.17;;;13.70;99.90;;;13.96;100.00;101070.78;4817636;29;20222;-63
2022/10/06 00:49:35;;;;;;;10.15;3.67;;;13.80;99.90;;;13.88;100.00;101076.94;4788413;29;20217;-63
2022/10/06 00:52:10;;;;;;;6.03;2.25;;;13.70;99.90;;;13.95;100.00;101076.09;4813225;29;20206;-63
2022/10/06 00:54:39;;;;;;;6.43;2.92;;;13.80;99.90;;;13.92;100.00;101087.59;4802816;29;20248;-63
2022/10/06 00:57:09;;;;;;;9.45;4.25;;;13.70;99.90;;;13.71;100.00;101091.03;4803377;29;20217;-63
2022/10/06 00:59:39;;;;;;;4.32;2.33;;;13.60;99.90;;;13.69;100.00;101105.19;4803073;29;20228;-62
2022/10/06 01:02:13;;;;;;;7.55;3.60;;;13.50;99.90;;;13.59;100.00;101106.00;4800752;29;20218;-63
2022/10/06 01:04:47;;;;;;;6.97;3.35;;;13.40;99.90;;;13.52;100.00;101128.97;4814274;29;20241;-63
2022/10/06 01:07:18;;;;;;;7.05;3.10;;;13.40;99.90;;;13.46;100.00;101136.91;4816882;29;20208;-62
2022/10/06 01:09:46;;;;;;;5.18;2.75;;;13.30;99.90;;;13.48;100.00;101139.56;4783526;29;20210;-62
2022/10/06 01:12:15;;;;;;;4.85;2.60;;;13.30;99.90;;;13.12;100.00;101128.59;4802634;29;20249;-63
2022/10/06 01:14:43;;;;;;;8.93;3.97;;;13.10;99.90;;;13.75;100.00;101169.91;4815186;29;20244;-63
2022/10/06 01:17:36;;;;;;;6.50;3.30;;;13.50;99.90;;;13.44;100.00;101146.63;4796087;29;20229;-63
2022/10/06 01:20:10;;;;;;;5.72;2.80;;;13.30;99.90;;;13.31;100.00;101150.94;4785019;29;20663;-63
2022/10/06 01:22:44;;;;;;;6.72;3.05;;;13.20;99.90;;;13.34;100.00;101166.91;4801327;29;20220;-63
2022/10/06 01:25:15;;;;;;;4.75;2.45;;;13.00;99.90;;;13.40;100.00;101176.69;4843143;29;20233;-64
2022/10/06 01:27:52;;;;;;;6.13;3.08;;;13.20;99.90;;;13.45;100.00;101177.63;4785011;29;20664;-63
2022/10/06 01:30:31;;;;;;;5.45;2.78;;;13.30;99.90;;;13.76;100.00;101186.75;4803102;29;20210;-62
2022/10/06 01:32:59;;;;;;;7.32;3.63;;;13.40;99.90;;;13.60;100.00;101179.53;4817927;29;20220;-62
2022/10/06 01:35:27;;;;;;;5.63;2.83;;;13.40;99.90;;;13.49;100.00;101189.19;4797189;29;20222;-63
2022/10/06 01:37:57;;;;;;;8.50;3.50;;;13.30;99.90;;;13.33;100.00;101183.72;4801585;29;20225;-63
2022/10/06 01:40:28;;;;;;;6.32;3.05;;;13.20;99.90;;;13.37;100.00;101201.47;4801744;29;20210;-63
2022/10/06 01:42:58;;;;;;;5.55;2.72;;;13.10;99.90;;;13.73;100.00;101224.84;4816898;29;20222;-63
2022/10/06 01:45:27;;;;;;;9.35;3.95;;;13.50;99.90;;;13.71;100.00;101221.28;4797184;29;20242;-63
2022/10/06 01:47:55;;;;;;;4.90;2.10;;;13.50;99.90;;;13.83;100.00;101225.81;4797648;29;20214;-63
2022/10/06 01:50:23;;;;;;;7.47;3.63;;;13.60;99.90;;;13.86;100.00;101241.78;4800331;29;20217;-63
2022/10/06 01:52:52;;;;;;;6.80;3.05;;;13.60;99.90;;;13.91;100.00;101233.84;4813634;29;20217;-63
2022/10/06 01:55:20;;;;;;;5.80;2.80;;;13.70;99.90;;;13.78;100.00;101243.47;4801857;29;20245;-63
2022/10/06 01:57:48;;;;;;;3.15;1.83;;;13.60;99.90;;;13.74;100.00;101249.66;4814597;29;20217;-63
2022/10/06 02:00:17;;;;;;;4.53;2.50;;;13.60;99.90;;;13.81;100.00;101250.59;4797790;29;20229;-63
2022/10/06 02:02:49;;;;;;;6.60;3.03;;;13.60;99.90;;;13.77;100.00;101255.88;4813418;29;20201;-62
2022/10/06 02:05:17;;;;;;;6.28;2.95;;;13.60;99.90;;;14.09;100.00;101271.22;4798401;29;20238;-63
2022/10/06 02:07:51;;;;;;;4.82;2.83;;;13.80;99.90;;;14.29;100.00;101271.38;4841248;29;20250;-63
2022/10/06 02:10:19;;;;;;;6.03;3.13;;;14.00;99.90;;;14.28;100.00;101265.16;4799282;29;20222;-63
2022/10/06 02:12:52;;;;;;;4.57;2.50;;;14.20;99.90;;;14.04;100.00;101265.88;4828964;29;20219;-63
2022/10/06 02:15:21;;;;;;;4.40;2.47;;;13.90;99.90;;;14.16;100.00;101280.13;4815859;29;20246;-63
2022/10/06 02:17:51;;;;;;;5.18;2.80;;;13.90;99.90;;;14.29;100.00;101290.88;4798138;29;20282;-63
2022/10/06 02:20:20;;;;;;;2.45;1.58;;;14.10;99.90;;;14.28;100.00;101297.09;4796473;29;20214;-63
2022/10/06 02:22:49;;;;;;;4.47;2.47;;;14.10;99.90;;;14.56;100.00;101318.66;4787684;29;20217;-63
2022/10/06 02:25:17;;;;;;;4.05;2.45;;;14.30;99.90;;;14.54;100.00;101326.63;4798563;29;20242;-63
2022/10/06 02:27:46;;;;;;;5.07;2.70;;;14.30;99.90;;;14.78;100.00;101331.22;4830728;29;20582;-63
2022/10/06 02:30:14;;;;;;;4.60;2.70;;;14.50;99.90;;;14.98;100.00;101337.53;4799746;29;20278;-63
2022/10/06 02:32:43;;;;;;;7.25;3.80;;;14.80;99.90;;;15.00;100.00;101326.91;4841200;29;20218;-63
2022/10/06 02:35:12;;;;;;;5.70;3.45;;;14.80;99.90;;;14.90;100.00;101315.31;4806373;29;20241;-63
2022/10/06 02:37:40;;;;;;;7.32;3.45;;;14.70;99.90;;;14.83;100.00;101317.94;4812627;29;20237;-62
2022/10/06 02:40:11;;;;;;;5.63;2.95;;;14.60;99.90;;;14.83;100.00;101321.47;4798794;29;20222;-63
2022/10/06 02:42:38;;;;;;;5.85;2.80;;;14.60;99.90;;;14.87;100.00;101325.06;4785017;29;20214;-63
2022/10/06 02:45:08;;;;;;;5.65;2.67;;;14.70;99.90;;;14.83;100.00;101332.13;4801933;29;20597;-63
2022/10/06 02:47:36;;;;;;;5.50;2.70;;;14.60;99.90;;;14.83;100.00;101340.13;4805593;29;20211;-63
2022/10/06 02:50:07;;;;;;;6.07;3.00;;;14.60;99.90;;;14.73;100.00;101351.59;4784029;29;20207;-63
2022/10/06 02:52:39;;;;;;;3.90;2.05;;;14.50;99.90;;;14.67;100.00;101362.19;4801702;29;20206;-63
2022/10/06 02:55:08;;;;;;;5.75;3.03;;;14.50;99.90;;;14.88;100.00;101388.97;4817599;29;20242;-62
2022/10/06 02:57:37;;;;;;;3.65;2.13;;;14.60;99.90;;;15.09;100.00;101384.66;4788739;29;20210;-63
2022/10/06 03:00:07;;;;;;;4.28;2.55;;;14.80;99.90;;;15.03;100.00;101385.53;4802202;29;20214;-63
2022/10/06 03:02:35;;;;;;;3.35;2.10;;;14.90;99.90;;;14.92;100.00;101379.25;4799990;29;20218;-63
2022/10/06 03:05:04;;;;;;;3.60;2.17;;;14.70;99.90;;;14.82;100.00;101386.28;4820594;29;20233;-63
2022/10/06 03:07:33;;;;;;;4.90;2.65;;;14.70;99.90;;;14.76;100.00;101385.34;4806167;29;20219;-63
2022/10/06 03:10:01;;;;;;;3.60;2.35;;;14.60;99.90;;;14.82;100.00;101406.69;4814099;29;20222;-63
2022/10/06 03:12:30;;;;;;;4.05;2.45;;;14.60;99.90;;;14.87;100.00;101418.25;4790206;29;20221;-63
2022/10/06 03:14:58;;;;;;;3.10;2.00;;;14.60;99.90;;;14.80;100.00;101427.09;4806152;29;20233;-63
2022/10/06 03:17:26;;;;;;;3.03;2.00;;;14.60;99.90;;;14.99;100.00;101432.56;4806092;29;20217;-63
2022/10/06 03:19:56;;;;;;;3.45;2.25;;;14.80;99.90;;;15.27;100.00;101451.38;4806654;29;20209;-63
2022/10/06 03:22:25;;;;;;;3.15;2.20;;;15.00;99.90;;;15.46;100.00;101447.03;4803336;29;20218;-63
2022/10/06 03:24:56;;;;;;;4.65;3.25;;;15.20;99.90;;;15.24;100.00;101409.63;4804327;29;20237;-64
2022/10/06 03:27:24;;;;;;;4.10;2.53;;;15.10;99.90;;;15.15;100.00;101398.03;4805110;29;20313;-64
2022/10/06 03:29:56;;;;;;;2.55;1.95;;;15.00;99.90;;;15.08;100.00;101381.09;4806732;29;20217;-63
2022/10/06 03:32:26;;;;;;;3.42;2.53;;;15.00;99.90;;;15.01;100.00;101388.19;4836550;29;20214;-63
2022/10/06 03:34:54;;;;;;;1.50;1.10;;;14.90;99.90;;;14.95;100.00;101380.16;4791336;29;20238;-63
2022/10/06 03:37:22;;;;;;;2.65;2.00;;;14.80;99.90;;;14.89;100.00;101382.78;4804914;29;20582;-64
2022/10/06 03:39:51;;;;;;;3.55;2.22;;;14.80;99.90;;;14.88;100.00;101380.09;4806414;29;20218;-63
2022/10/06 03:42:19;;;;;;;3.88;2.40;;;14.70;99.90;;;14.79;100.00;101383.59;4787244;29;20227;-63
2022/10/06 03:44:47;;;;;;;1.40;1.10;;;14.30;99.90;;;14.79;100.00;101391.59;4822863;29;20256;-64
2022/10/06 03:47:16;;;;;;;4.43;2.58;;;14.60;99.90;;;14.80;100.00;101388.03;4800442;29;20225;-63
2022/10/06 03:49:45;;;;;;;4.18;2.78;;;14.70;99.90;;;14.79;100.00;101385.34;4830808;29;20580;-63
2022/10/06 03:52:15;;;;;;;2.35;1.52;;;14.60;99.90;;;14.78;100.00;101383.56;4796686;29;20213;-63
2022/10/06 03:54:45;;;;;;;4.38;2.53;;;14.60;99.90;;;14.73;100.00;101376.44;4833116;29;20234;-64
2022/10/06 03:57:13;;;;;;;6.43;3.65;;;14.60;99.90;;;14.81;100.00;101365.84;4805053;29;20206;-63
2022/10/06 03:59:41;;;;;;;2.55;1.42;;;14.60;99.90;;;14.87;100.00;101373.00;4815303;29;20214;-63
2022/10/06 04:02:10;;;;;;;5.32;2.92;;;14.70;99.90;;;14.83;100.00;101376.50;4808048;29;20210;-64
2022/10/06 04:04:38;;;;;;;3.00;1.80;;;14.70;99.90;;;14.65;100.00;101383.50;4839498;29;20241;-63
2022/10/06 04:07:10;;;;;;;3.28;2.35;;;14.50;99.90;;;14.55;100.00;101391.41;4793826;29;20210;-63
2022/10/06 04:09:40;;;;;;;2.58;1.83;;;14.40;99.90;;;14.50;100.00;101398.47;4814746;29;20210;-63
2022/10/06 04:12:09;;;;;;;3.47;2.17;;;14.40;99.90;;;14.49;100.00;101415.31;4809249;29;20229;-62
2022/10/06 04:14:38;;;;;;;4.40;2.53;;;14.30;99.90;;;14.36;100.00;101420.47;4814987;29;20230;-63
2022/10/06 04:17:07;;;;;;;3.22;1.85;;;14.30;99.90;;;14.38;100.00;101433.81;4793485;29;20217;-64
2022/10/06 04:19:39;;;;;;;2.78;1.55;;;14.20;99.90;;;14.67;100.00;101405.69;4823213;29;20214;-63
2022/10/06 04:22:07;;;;;;;3.10;2.05;;;14.50;99.90;;;14.75;100.00;101412.84;4808920;29;20221;-63
2022/10/06 04:24:35;;;;;;;4.03;2.38;;;14.50;99.90;;;14.84;100.00;101389.84;4838717;29;20241;-63
2022/10/06 04:29:55;;;;;;;3.38;2.15;;;14.70;99.90;;;14.80;100.00;101392.47;4819069;29;20217;-63
2022/10/06 04:32:28;;;;;;;3.55;2.22;;;14.60;99.90;;;14.91;100.00;101381.00;4800763;29;20218;-63
2022/10/06 04:35:04;;;;;;;2.47;1.40;;;14.70;99.90;;;14.79;100.00;101366.72;4816604;29;20226;-63
2022/10/06 04:37:32;;;;;;;3.50;2.25;;;14.60;99.90;;;14.89;100.00;101376.56;4805276;29;20213;-63
2022/10/06 04:40:01;;;;;;;3.33;2.08;;;14.70;99.90;;;14.81;100.00;101368.50;4806628;29;20214;-64
2022/10/06 04:42:31;;;;;;;2.35;1.75;;;14.60;99.90;;;14.78;100.00;101371.16;4832352;29;20226;-63
2022/10/06 04:45:05;;;;;;;2.30;1.70;;;14.60;99.90;;;14.81;100.00;101368.50;4818534;29;20257;-63
2022/10/06 04:47:34;;;;;;;1.85;1.40;;;14.70;99.90;;;14.84;100.00;101360.53;4844793;29;20210;-62
2022/10/06 04:50:03;;;;;;;2.55;1.77;;;14.70;99.90;;;14.77;100.00;101357.84;4807905;29;20237;-63
2022/10/06 04:52:31;;;;;;;2.95;2.00;;;14.60;99.90;;;14.68;100.00;101353.34;4824764;29;20202;-63
2022/10/06 04:54:59;;;;;;;2.53;1.80;;;14.60;99.90;;;14.65;100.00;101358.63;4812934;29;20222;-63
2022/10/06 04:57:27;;;;;;;2.10;1.60;;;14.50;99.90;;;14.59;100.00;101358.59;4804149;29;20222;-63
2022/10/06 05:02:44;;;;;;;2.70;1.77;;;14.40;99.90;;;14.49;100.00;101386.91;4820656;29;20214;-65
2022/10/06 05:05:12;;;;;;;2.80;1.95;;;14.40;99.90;;;14.51;100.00;101381.59;4833587;29;20231;-64
2022/10/06 05:07:45;;;;;;;1.88;1.40;;;14.40;99.90;;;14.61;100.00;101383.47;4795226;29;20238;-63
2022/10/06 05:10:14;;;;;;;1.50;1.20;;;14.40;99.90;;;14.60;100.00;101376.34;4819893;29;20280;-62
2022/10/06 05:12:43;;;;;;;2.80;1.90;;;14.40;99.90;;;14.57;100.00;101371.00;4787871;29;20227;-62
2022/10/06 05:15:10;;;;;;;1.30;1.02;;;14.40;99.90;;;14.49;100.00;101365.63;4823192;29;20574;-62
2022/10/06 05:17:39;;;;;;;2.60;1.80;;;14.40;99.90;;;14.45;100.00;101369.13;4782331;29;20217;-62
2022/10/06 05:20:09;;;;;;;3.00;2.05;;;14.30;99.90;;;14.34;100.00;101376.09;4818119;29;20643;-62
2022/10/06 05:22:37;;;;;;;2.92;2.05;;;14.20;99.90;;;14.35;100.00;101385.88;4811540;29;20213;-62
2022/10/06 05:25:06;;;;;;;3.42;2.13;;;14.20;99.90;;;14.33;100.00;101396.50;4790324;29;20230;-62
2022/10/06 05:27:34;;;;;;;4.03;2.50;;;14.20;99.90;;;14.34;100.00;101406.28;4825599;29;20222;-62
2022/10/06 05:30:02;;;;;;;2.38;1.70;;;14.20;99.90;;;14.35;100.00;101416.03;4801094;29;20218;-64
2022/10/06 05:32:30;;;;;;;3.47;2.10;;;14.20;99.90;;;14.30;100.00;101420.44;4803834;29;20210;-62
2022/10/06 05:35:03;;;;;;;2.97;1.88;;;14.20;99.90;;;14.31;100.00;101427.53;4805643;29;20237;-62
2022/10/06 05:37:31;;;;;;;2.55;1.70;;;14.20;99.90;;;14.45;100.00;101438.34;4820531;29;20214;-62
2022/10/06 05:39:59;;;;;;;3.83;2.47;;;14.20;99.90;;;14.38;100.00;101429.38;4806097;29;20221;-62
2022/10/06 05:42:27;;;;;;;3.28;1.98;;;14.20;99.90;;;14.39;100.00;101440.91;4799943;29;20687;-62
2022/10/06 05:44:57;;;;;;;3.53;2.22;;;14.20;99.90;;;14.41;100.00;101453.34;4803362;29;20234;-62
2022/10/06 05:47:25;;;;;;;2.92;1.85;;;14.20;99.90;;;14.36;100.00;101454.19;4821884;29;20234;-62
2022/10/06 05:49:53;;;;;;;3.15;2.00;;;14.20;99.90;;;14.42;100.00;101467.59;4807551;29;20545;-62
2022/10/06 05:52:21;;;;;;;2.90;1.90;;;14.30;99.90;;;14.43;100.00;101457.84;4805318;29;20221;-63
2022/10/06 05:54:49;;;;;;;5.15;2.70;;;14.30;99.90;;;14.40;100.00;101474.63;4837309;29;20229;-62
2022/10/06 05:57:18;;;;;;;4.20;2.40;;;14.20;99.90;;;14.31;100.00;101471.88;4815318;29;20221;-63
2022/10/06 05:59:45;;;;;;;4.20;2.38;;;14.20;99.90;;;14.22;100.00;101480.63;4800621;29;20213;-63
2022/10/06 06:02:13;;;;;;;3.63;2.45;;;14.10;99.90;;;14.25;100.00;101495.72;4819933;29;20229;-61
2022/10/06 06:04:43;;;;;;;5.30;3.10;;;14.10;99.90;;;14.24;100.00;101496.59;4811669;29;20229;-60
2022/10/06 06:07:11;;;;;;;3.83;2.08;;;13.40;99.90;;;14.25;100.00;101514.34;4833865;29;20241;-61
2022/10/06 06:09:41;;;;;;;1.95;1.70;;;14.10;99.90;;;14.30;100.00;101523.28;4807167;29;20210;-61
2022/10/06 06:12:09;;;;;;;0.20;0.20;;;14.10;99.90;;;14.27;100.00;101520.59;4789494;29;20723;-61
2022/10/06 06:17:47;;;;;;;0.68;0.68;;;14.10;99.90;;;14.22;100.00;101519.63;4826044;29;20293;-61
2022/10/06 06:20:15;;;;;;;0.57;0.57;;;14.10;99.90;;;14.20;100.00;101532.91;4806420;29;20214;-62
2022/10/06 06:22:43;;;;;;;0.85;0.80;;;14.00;99.90;;;14.21;100.00;101537.38;4815246;29;20210;-62
2022/10/06 06:25:11;;;;;;;0.77;0.77;;;14.10;99.90;;;14.21;100.00;101540.03;4802990;29;20237;-62
2022/10/06 06:27:41;;;;;;;0.45;0.45;;;14.00;99.90;;;14.25;100.00;101543.63;4818533;29;20226;-62
2022/10/06 06:30:10;;;;;;;0.82;0.82;;;14.10;99.90;;;14.27;100.00;101552.50;4809495;29;20210;-62
2022/10/06 06:32:39;;;;;;;1.05;0.95;;;14.10;99.90;;;14.24;100.00;101555.13;4810423;29;20215;-63
2022/10/06 06:35:09;;;;;;;0.70;0.70;;;14.10;99.90;;;14.19;100.00;101568.38;4801874;29;20237;-63
2022/10/06 06:37:37;;;;;;;0.80;0.80;;;14.00;99.90;;;14.17;100.00;101586.09;4800867;29;20206;-63
2022/10/06 06:40:06;;;;;;;0.95;0.88;;;14.00;99.90;;;14.20;100.00;101591.44;4803179;29;20548;-62
2022/10/06 06:42:37;;;;;;;0.60;0.60;;;14.00;99.90;;;14.24;100.00;101600.38;4812332;29;20221;-63
2022/10/06 06:45:24;;;;;;;1.10;1.00;;;14.10;99.90;;;14.20;100.00;101603.88;4808451;29;20217;-62
2022/10/06 06:48:02;;;;;;;1.13;1.02;;;14.10;99.90;;;14.18;100.00;101610.94;4833533;29;20243;-62
2022/10/06 06:50:32;;;;;;;1.40;1.30;;;14.00;99.90;;;14.22;100.00;101616.31;4825308;29;20222;-63
2022/10/06 06:53:01;;;;;;;0.98;0.90;;;14.00;99.90;;;14.27;100.00;101621.69;4793774;29;20221;-63
2022/10/06 06:55:30;;;;;;;1.52;1.40;;;14.10;99.90;;;14.30;100.00;101629.72;4792686;29;20210;-63
2022/10/06 06:57:59;;;;;;;0.70;0.70;;;14.10;99.90;;;14.33;100.00;101636.00;4791227;29;20225;-62
2022/10/06 07:00:28;;;;;;;1.17;1.08;;;14.10;99.90;;;14.37;100.00;101643.16;4813350;29;20213;-63
2022/10/06 07:03:04;;;;;;;0.57;0.52;;;14.20;99.90;;;14.45;100.00;101648.59;4825091;29;20205;-63
2022/10/06 07:05:34;;;;;;;0.70;0.70;;;14.20;99.90;;;14.50;100.00;101664.63;4821494;29;20304;-63
2022/10/06 07:08:02;;;;;;;0.60;0.60;;;14.30;99.90;;;14.51;100.00;101677.97;4806152;29;20222;-62
2022/10/06 07:10:35;;;;;;;0.40;0.40;;;14.30;99.90;;;14.51;100.00;101682.41;4789089;29;20210;-62
2022/10/06 07:13:05;;;;;;;0.55;0.55;;;14.30;99.90;;;14.52;100.00;101677.09;4802068;29;20221;-62
2022/10/06 07:26:45;;;;;;;0.50;0.50;;;14.60;99.90;;;14.88;100.00;101731.69;4801815;29;20222;-63
2022/10/06 07:29:13;;;;;;;0.52;0.52;;;14.70;99.90;;;14.92;100.00;101728.16;4790773;29;20216;-63
2022/10/06 07:31:41;;;;;;;0.30;0.30;;;14.70;99.90;;;14.93;100.00;101730.84;4809016;29;20584;-62
2022/10/06 07:34:09;;;;;;;0.10;0.10;;;14.70;99.90;;;14.99;100.00;101714.03;4792816;29;20244;-63
2022/10/06 07:36:38;;;;;;;0.10;0.10;;;14.80;99.90;;;15.06;100.00;101718.56;4807368;29;20214;-63
2022/10/06 07:39:09;;;;;;;0.10;0.10;;;14.90;99.90;;;15.07;100.00;101732.78;4793656;29;20225;-63
2022/10/06 07:41:38;;;;;;;0.10;0.10;;;14.90;99.90;;;15.03;100.00;101739.84;4815915;29;20218;-62
2022/10/06 07:44:05;;;;;;;0.00;0.00;;;14.90;99.90;;;15.02;100.00;101744.28;4809067;29;20252;-63
2022/10/06 07:46:36;;;;;;;0.10;0.10;;;14.90;99.90;;;14.92;100.00;101736.16;4811028;29;20218;-62
2022/10/06 07:49:16;;;;;;;0.10;0.10;;;14.80;99.90;;;14.88;100.00;101737.00;4800609;29;20218;-62
2022/10/06 07:51:44;;;;;;;0.00;0.00;;;14.80;99.90;;;14.92;100.00;101737.06;4836806;29;20217;-62
2022/10/06 07:54:12;;;;;;;0.00;0.00;;;14.70;99.90;;;14.88;100.00;101742.31;4805420;29;20702;-63
2022/10/06 07:57:03;;;;;;;0.00;0.00;;;14.70;99.90;;;14.90;100.00;101736.16;4810493;29;20218;-62
2022/10/06 07:59:31;;;;;;;0.10;0.10;;;14.70;99.90;;;15.01;100.00;101745.16;4836012;29;20206;-62
2022/10/06 08:01:58;;;;;;;0.10;0.10;;;14.80;99.90;;;15.03;100.00;101738.06;4803591;29;20214;-62
2022/10/06 08:04:27;;;;;;;0.05;0.05;;;14.80;99.90;;;15.07;100.00;101730.13;4803355;29;20243;-63
2022/10/06 08:06:57;;;;;;;0.00;0.00;;;14.90;99.90;;;15.08;100.00;101719.47;4830083;29;20242;-62
2022/10/06 08:09:25;;;;;;;0.00;0.00;;;14.90;99.90;;;15.18;100.00;101728.47;4789238;29;20218;-63
2022/10/06 08:11:53;;;;;;;0.08;0.08;;;14.90;99.90;;;15.22;100.00;101719.63;4809025;29;20210;-63
2022/10/06 08:14:21;;;;;;;0.43;0.43;;;15.00;99.90;;;15.25;100.00;101711.66;4803189;29;20262;-63
2022/10/06 08:16:49;;;;;;;0.00;0.00;;;15.10;99.90;;;15.39;100.00;101718.03;4827526;29;20214;-63
2022/10/06 08:19:18;;;;;;;0.00;0.00;;;15.10;99.90;;;15.49;100.00;101706.56;4817115;29;20214;-62
2022/10/06 08:21:46;;;;;;;0.00;0.00;;;15.30;99.90;;;15.47;100.00;101681.66;4817676;29;20698;-63
2022/10/06 08:24:14;;;;;;;0.10;0.10;;;15.20;99.90;;;15.51;100.00;101696.81;4802622;29;20237;-63
2022/10/06 08:26:42;;;;;;;0.10;0.10;;;15.30;99.90;;;15.56;100.00;101696.84;4796515;29;20210;-63
2022/10/06 08:29:10;;;;;;;0.00;0.00;;;15.30;99.90;;;15.58;100.00;101693.34;4798887;29;20214;-62
2022/10/06 08:31:38;;;;;;;0.00;0.00;;;15.40;99.90;;;15.67;100.00;101689.91;4786580;29;20210;-62
2022/10/06 08:34:07;;;;;;;0.05;0.05;;;15.40;99.90;;;15.68;100.00;101668.56;4841584;29;20238;-62
2022/10/06 08:36:38;;;;;;;0.00;0.00;;;15.50;99.90;;;15.80;100.00;101675.78;4828127;29;20219;-63
2022/10/06 08:39:19;;;;;;;0.00;0.00;;;15.60;99.90;;;15.92;100.00;101672.31;4828786;29;20222;-62
2022/10/06 08:41:50;;;;;;;0.00;0.00;;;15.70;99.90;;;16.08;100.00;101687.53;4829405;29;20214;-62
2022/10/06 08:44:33;;;;;;;0.00;0.00;;;15.80;99.90;;;16.16;100.00;101671.56;4783143;29;20221;-62
2022/10/06 08:47:13;;;;;;;0.00;0.00;;;15.90;99.90;;;16.17;100.00;101657.34;4795212;29;20206;-63
2022/10/06 08:49:45;;;;;;;0.00;0.00;;;16.00;99.90;;;16.26;100.00;101655.59;4832120;29;20218;-62
2022/10/06 08:52:45;;;;;;;0.25;0.15;;;16.00;99.90;;;16.39;100.00;101631.63;4779394;29;20221;-63
2022/10/06 08:55:46;;;;;;;0.00;0.00;;;16.10;99.90;;;16.41;100.00;101630.75;4830721;29;20238;-63
2022/10/06 08:58:29;;;;;;;0.00;0.00;;;16.10;99.90;;;16.56;100.00;101644.16;4813951;29;20221;-62
2022/10/06 09:01:23;;;;;;;0.00;0.00;;;16.20;99.90;;;16.68;100.00;101669.16;4817967;29;20210;-63
2022/10/06 09:04:01;;;;;;;0.03;0.03;;;16.40;99.90;;;16.72;100.00;101636.22;4813832;29;20242;-63
2022/10/06 09:07:05;;;;;;;0.00;0.00;;;16.40;99.90;;;16.64;100.00;101596.13;4819151;29;20206;-63
2022/10/06 09:10:04;;;;;;;0.00;0.00;;;16.40;99.90;;;16.54;99.21;101564.94;4800566;29;20210;-62
2022/10/06 09:12:43;;;;;;;0.00;0.00;;;16.30;99.90;;;16.52;98.18;101548.91;4823529;29;20245;-63
2022/10/06 09:15:14;;;;;;;0.00;0.00;;;16.30;99.90;;;16.51;96.84;101535.53;4801299;29;20237;-62
2022/10/06 09:17:49;;;;;;;0.00;0.00;;;16.30;99.90;;;16.41;96.45;101531.06;4797753;29;20214;-62
2022/10/06 09:20:30;;;;;;;0.10;0.10;;;16.20;99.90;;;16.76;94.03;101542.75;4816193;29;20236;-62
2022/10/06 09:23:01;;;;;;;0.10;0.10;;;16.40;99.90;;;16.54;93.61;101495.50;4831228;29;20214;-62
2022/10/06 09:25:29;;;;;;;0.00;0.00;;;16.40;99.90;;;16.67;92.40;101500.00;4795140;29;20218;-62
2022/10/06 09:28:00;;;;;;;0.10;0.10;;;16.40;99.90;;;16.77;90.59;101490.22;4784558;29;20234;-62
2022/10/06 09:30:28;;;;;;;0.10;0.10;;;16.50;99.90;;;16.87;90.58;101500.00;4823575;29;20213;-63
2022/10/06 09:33:02;;;;;;;0.13;0.13;;;16.50;99.90;;;16.59;92.91;101486.59;4792828;29;20218;-63
2022/10/06 09:35:31;;;;;;;0.00;0.00;;;16.50;99.90;;;16.63;92.87;101501.75;4850054;29;20206;-62
2022/10/06 09:38:03;;;;;;;0.00;0.00;;;16.40;99.90;;;16.69;94.34;101526.72;4833578;29;20210;-62
2022/10/06 09:41:02;;;;;;;0.00;0.00;;;16.50;99.90;;;16.67;93.77;101513.34;4793852;29;20214;-62
2022/10/06 09:43:31;;;;;;;0.00;0.00;;;16.40;99.90;;;16.64;91.90;101491.94;4808836;29;20246;-63
2022/10/06 09:46:29;;;;;;;0.20;0.20;;;15.80;99.90;;;16.42;92.32;101464.31;4782982;29;20629;-63
2022/10/06 09:49:22;;;;;;;0.00;0.00;;;16.30;99.90;;;16.57;93.95;101507.06;4780985;29;20245;-63
2022/10/06 09:52:22;;;;;;;0.10;0.10;;;16.40;99.90;;;17.08;94.87;101576.66;4819825;29;20226;-62
2022/10/06 09:55:11;;;;;;;0.10;0.10;;;16.70;99.90;;;17.31;89.80;101512.47;4788211;29;20235;-63
2022/10/06 09:57:51;;;;;;;0.00;0.00;;;17.00;99.90;;;17.33;89.82;101511.59;4808326;29;20215;-63
2022/10/06 10:00:27;;;;;;;0.00;0.00;;;17.00;99.90;;;17.50;90.91;101530.28;4790897;29;20217;-62
2022/10/06 10:03:07;;;;;;;0.90;0.90;;;17.20;99.90;;;17.64;90.15;101524.91;4798424;29;20210;-63
2022/10/06 10:05:39;;;;;;;0.10;0.10;;;17.30;99.90;;;17.65;86.11;101466.03;4798301;29;20232;-63
2022/10/06 10:08:13;;;;;;;0.00;0.00;;;17.40;99.90;;;17.80;84.16;101441.03;4798105;29;20230;-62
2022/10/06 10:10:41;;;;;;;0.00;0.00;;;17.50;99.90;;;18.19;85.12;101499.72;4819015;29;20227;-63
2022/10/06 10:13:25;;;;;;;0.10;0.10;;;17.80;99.90;;;18.49;82.65;101479.94;4818218;29;20693;-62
2022/10/06 10:15:57;;;;;;;0.10;0.10;;;18.10;99.90;;;18.27;80.48;101402.44;4804471;29;20225;-63
2022/10/06 10:18:29;;;;;;;0.10;0.10;;;18.20;99.90;;;18.36;79.56;101397.00;4813897;29;20218;-63
2022/10/06 10:21:07;;;;;;;0.10;0.10;;;18.10;99.90;;;18.72;82.12;101476.22;4798627;29;20675;-62
2022/10/06 10:24:00;;;;;;;0.10;0.10;;;18.40;99.90;;;19.06;82.69;101503.63;4858444;29;20224;-79
2022/10/06 10:26:53;;;;;;;0.10;0.10;;;18.80;99.90;;;18.88;79.97;101407.31;4849069;29;20230;-79
2022/10/06 10:29:48;;;;;;;0.10;0.10;;;18.80;99.90;;;19.21;78.48;101416.78;4844708;29;20249;-81
2022/10/06 10:32:34;;;;;;;0.10;0.10;;;19.00;99.90;;;19.07;75.46;101334.72;4849024;29;20214;-80
2022/10/06 10:35:18;;;;;;;0.43;0.43;;;19.00;99.90;;;18.88;79.62;101370.66;4864210;29;20237;-80
2022/10/06 10:38:08;;;;;;;0.30;0.30;;;18.80;99.90;;;18.98;81.46;101409.00;4836504;29;20225;-78
2022/10/06 10:41:01;;;;;;;0.10;0.10;;;18.90;99.90;;;18.98;80.51;101383.06;4832445;29;20587;-78
2022/10/06 10:43:52;;;;;;;0.25;0.25;;;19.00;99.90;;;19.41;79.20;101429.06;4831842;29;20212;-79
2022/10/06 10:46:31;;;;;;;0.05;0.05;;;19.40;99.90;;;19.74;77.41;101410.84;4860458;29;20625;-80
2022/10/06 10:49:11;;;;;;;0.10;0.10;;;19.80;99.90;;;19.64;75.01;101337.63;4848978;29;20235;-80